Terminal Aerodrome Forecast
Issued by NWS

Home | Current Version | Previous Version | Text Only | Print | Product List | Glossary On
Versions: 1 2 3 4 5 6 7 8 9 10 11 12 13 14 15 16
000
FTUS42 KFFC 012341
TAFRYY
TAF
KRYY 012341Z 0200/0224 00000KT P6SM SCT250
     FM021500 35003KT P6SM SCT035 SCT250
     FM021800 32004KT P6SM BKN045
      AMD NOT SKED 0204/0212=

USA.gov is the U.S. government's official web portal to all federal, state and local government web resources and services.